This is the latest recevied weather packets stored in our database for station/object DL1VED. If no packets are shown the sender has not sent any weather packets the latest 10 day(s).
| Time | Temp. | Humidity | Pressure | Rain* | Wind** | Luminosity | Snow |
|---|---|---|---|---|---|---|---|
| 1778425141 | 22.22° C | 45% | 1007 hPa | 0 mm | - | - | - |
| 1778424241 | 22.22° C | 46% | 1007.2 hPa | 0 mm | - | - | - |
| 1778423341 | 21.67° C | 46% | 1007.4 hPa | 0 mm | - | - | - |
| 1778422441 | 22.22° C | 46% | 1007.8 hPa | 0 mm | - | - | - |
| 1778421541 | 21.67° C | 48% | 1008.1 hPa | 0 mm | - | - | - |
| 1778420641 | 21.67° C | 47% | 1008.2 hPa | 0 mm | - | - | - |
| 1778419741 | 21.11° C | 48% | 1008.5 hPa | 0 mm | - | - | - |
| 1778418841 | 21.11° C | 47% | 1008.6 hPa | 0 mm | - | - | - |
| 1778417941 | 21.11° C | 47% | 1008.7 hPa | 0 mm | - | - | - |
| 1778417041 | 21.11° C | 47% | 1008.8 hPa | 0 mm | - | - | - |
| 1778416141 | 21.11° C | 48% | 1008.8 hPa | 0 mm | - | - | - |
| 1778415241 | 21.67° C | 45% | 1008.9 hPa | 0 mm | - | - | - |
| 1778414341 | 21.67° C | 46% | 1009.2 hPa | 0 mm | - | - | - |
| 1778413441 | 21.67° C | 45% | 1009.3 hPa | 0 mm | - | - | - |
| 1778412541 | 21.67° C | 46% | 1009.4 hPa | 0 mm | - | - | - |
| 1778411641 | 21.67° C | 44% | 1009.5 hPa | 0 mm | - | - | - |
| 1778410741 | 21.67° C | 45% | 1009.7 hPa | 0 mm | - | - | - |
| 1778409841 | 21.11° C | 46% | 1009.8 hPa | 0 mm | - | - | - |
| 1778408941 | 20.56° C | 49% | 1010.1 hPa | 0 mm | - | - | - |
| 1778408041 | 20° C | 49% | 1010.2 hPa | 0 mm | - | - | - |
| 1778407141 | 20° C | 50% | 1010.3 hPa | 0 mm | - | - | - |
| 1778406241 | 19.44° C | 51% | 1010.5 hPa | 0 mm | - | - | - |
| 1778405341 | 20.56° C | 47% | 1010.5 hPa | 0 mm | - | - | - |
| 1778404441 | 20.56° C | 49% | 1010.6 hPa | 0 mm | - | - | - |
| 1778403541 | 19.44° C | 50% | 1010.8 hPa | 0 mm | - | - | - |
* Rain latest hour (hover to see other rain measurements)
** Current wind speed in m/s (hover to see current wind gust speed)